sensor_id;sensor_type;location;lat;lon;timestamp;P1;durP1;ratioP1;P2;durP2;ratioP2
10945;SDS011;5525;42.648;23.368;2023-04-03T00:01:16;3.70;;;2.70;;
10945;SDS011;5525;42.648;23.368;2023-04-03T00:03:45;3.28;;;2.65;;
10945;SDS011;5525;42.648;23.368;2023-04-03T00:06:12;2.70;;;2.50;;
10945;SDS011;5525;42.648;23.368;2023-04-03T00:08:39;3.55;;;2.75;;
10945;SDS011;5525;42.648;23.368;2023-04-03T00:11:06;3.05;;;2.50;;
10945;SDS011;5525;42.648;23.368;2023-04-03T00:13:34;2.80;;;2.40;;
10945;SDS011;5525;42.648;23.368;2023-04-03T00:16:01;2.97;;;2.50;;
10945;SDS011;5525;42.648;23.368;2023-04-03T00:18:28;2.75;;;2.28;;
10945;SDS011;5525;42.648;23.368;2023-04-03T00:20:57;4.70;;;2.55;;
10945;SDS011;5525;42.648;23.368;2023-04-03T00:23:24;2.65;;;2.10;;
10945;SDS011;5525;42.648;23.368;2023-04-03T00:25:50;4.30;;;2.50;;
10945;SDS011;5525;42.648;23.368;2023-04-03T00:28:17;3.63;;;2.10;;
10945;SDS011;5525;42.648;23.368;2023-04-03T00:30:44;3.13;;;2.03;;
10945;SDS011;5525;42.648;23.368;2023-04-03T00:33:11;2.60;;;1.98;;
10945;SDS011;5525;42.648;23.368;2023-04-03T00:35:38;4.18;;;2.20;;
10945;SDS011;5525;42.648;23.368;2023-04-03T00:38:06;2.90;;;2.05;;
10945;SDS011;5525;42.648;23.368;2023-04-03T00:40:34;2.85;;;2.38;;
10945;SDS011;5525;42.648;23.368;2023-04-03T00:43:02;3.50;;;2.63;;
10945;SDS011;5525;42.648;23.368;2023-04-03T00:45:37;2.78;;;2.20;;
10945;SDS011;5525;42.648;23.368;2023-04-03T00:48:06;2.28;;;2.08;;
10945;SDS011;5525;42.648;23.368;2023-04-03T00:50:38;2.75;;;2.08;;
10945;SDS011;5525;42.648;23.368;2023-04-03T00:53:08;2.63;;;2.08;;
10945;SDS011;5525;42.648;23.368;2023-04-03T00:55:39;3.83;;;2.00;;
10945;SDS011;5525;42.648;23.368;2023-04-03T00:58:06;2.67;;;2.10;;
10945;SDS011;5525;42.648;23.368;2023-04-03T01:00:33;4.10;;;2.10;;
10945;SDS011;5525;42.648;23.368;2023-04-03T01:03:02;2.33;;;2.13;;
10945;SDS011;5525;42.648;23.368;2023-04-03T01:05:28;2.85;;;2.10;;
10945;SDS011;5525;42.648;23.368;2023-04-03T01:07:55;3.38;;;2.17;;
10945;SDS011;5525;42.648;23.368;2023-04-03T01:10:24;1.60;;;1.40;;
10945;SDS011;5525;42.648;23.368;2023-04-03T01:12:51;2.95;;;2.00;;
10945;SDS011;5525;42.648;23.368;2023-04-03T01:15:19;3.38;;;2.35;;
10945;SDS011;5525;42.648;23.368;2023-04-03T01:17:48;3.05;;;2.20;;
10945;SDS011;5525;42.648;23.368;2023-04-03T01:20:36;3.42;;;2.20;;
10945;SDS011;5525;42.648;23.368;2023-04-03T01:23:45;4.18;;;1.80;;
10945;SDS011;5525;42.648;23.368;2023-04-03T01:26:29;3.10;;;2.30;;
10945;SDS011;5525;42.648;23.368;2023-04-03T01:28:58;2.50;;;2.10;;
10945;SDS011;5525;42.648;23.368;2023-04-03T01:31:26;3.10;;;2.00;;
10945;SDS011;5525;42.648;23.368;2023-04-03T01:33:57;2.63;;;2.00;;
10945;SDS011;5525;42.648;23.368;2023-04-03T01:36:25;3.78;;;2.20;;
10945;SDS011;5525;42.648;23.368;2023-04-03T01:38:53;2.30;;;2.10;;
10945;SDS011;5525;42.648;23.368;2023-04-03T01:41:21;3.38;;;2.53;;
10945;SDS011;5525;42.648;23.368;2023-04-03T01:43:48;3.97;;;2.55;;
10945;SDS011;5525;42.648;23.368;2023-04-03T01:46:15;3.40;;;2.53;;
10945;SDS011;5525;42.648;23.368;2023-04-03T01:48:42;2.60;;;2.40;;
10945;SDS011;5525;42.648;23.368;2023-04-03T01:51:10;2.60;;;2.30;;
10945;SDS011;5525;42.648;23.368;2023-04-03T01:53:37;3.00;;;2.50;;
10945;SDS011;5525;42.648;23.368;2023-04-03T01:56:04;3.70;;;2.53;;
10945;SDS011;5525;42.648;23.368;2023-04-03T01:58:31;4.95;;;2.40;;
10945;SDS011;5525;42.648;23.368;2023-04-03T02:00:58;3.70;;;2.80;;
10945;SDS011;5525;42.648;23.368;2023-04-03T02:03:24;2.97;;;2.40;;
10945;SDS011;5525;42.648;23.368;2023-04-03T02:05:51;2.20;;;2.00;;
10945;SDS011;5525;42.648;23.368;2023-04-03T02:08:19;3.40;;;2.55;;
10945;SDS011;5525;42.648;23.368;2023-04-03T02:10:46;3.63;;;2.85;;
10945;SDS011;5525;42.648;23.368;2023-04-03T02:13:13;4.78;;;2.60;;
10945;SDS011;5525;42.648;23.368;2023-04-03T02:15:40;8.00;;;2.50;;
10945;SDS011;5525;42.648;23.368;2023-04-03T02:18:07;3.97;;;2.55;;
10945;SDS011;5525;42.648;23.368;2023-04-03T02:20:34;6.50;;;2.90;;
10945;SDS011;5525;42.648;23.368;2023-04-03T02:23:01;4.75;;;2.60;;
10945;SDS011;5525;42.648;23.368;2023-04-03T02:25:29;3.72;;;2.50;;
10945;SDS011;5525;42.648;23.368;2023-04-03T02:27:57;3.03;;;2.67;;
10945;SDS011;5525;42.648;23.368;2023-04-03T02:30:23;3.97;;;2.60;;
10945;SDS011;5525;42.648;23.368;2023-04-03T02:32:51;2.97;;;2.53;;
10945;SDS011;5525;42.648;23.368;2023-04-03T02:35:18;5.20;;;2.58;;
10945;SDS011;5525;42.648;23.368;2023-04-03T02:37:45;4.68;;;2.58;;
10945;SDS011;5525;42.648;23.368;2023-04-03T02:40:11;4.72;;;2.83;;
10945;SDS011;5525;42.648;23.368;2023-04-03T02:42:40;4.45;;;3.10;;
10945;SDS011;5525;42.648;23.368;2023-04-03T02:45:07;3.25;;;2.78;;
10945;SDS011;5525;42.648;23.368;2023-04-03T02:47:34;6.93;;;3.00;;
10945;SDS011;5525;42.648;23.368;2023-04-03T02:50:00;7.05;;;2.83;;
10945;SDS011;5525;42.648;23.368;2023-04-03T02:52:27;5.47;;;2.42;;
10945;SDS011;5525;42.648;23.368;2023-04-03T02:54:54;4.35;;;2.72;;
10945;SDS011;5525;42.648;23.368;2023-04-03T02:57:20;4.45;;;3.03;;
10945;SDS011;5525;42.648;23.368;2023-04-03T02:59:49;6.22;;;2.92;;
10945;SDS011;5525;42.648;23.368;2023-04-03T03:02:15;5.22;;;3.50;;
10945;SDS011;5525;42.648;23.368;2023-04-03T03:04:42;4.50;;;2.65;;
10945;SDS011;5525;42.648;23.368;2023-04-03T03:07:09;3.90;;;2.63;;
10945;SDS011;5525;42.648;23.368;2023-04-03T03:09:35;5.55;;;3.08;;
10945;SDS011;5525;42.648;23.368;2023-04-03T03:12:02;5.30;;;2.92;;
10945;SDS011;5525;42.648;23.368;2023-04-03T03:14:29;5.07;;;3.33;;
10945;SDS011;5525;42.648;23.368;2023-04-03T03:16:57;13.40;;;3.47;;
10945;SDS011;5525;42.648;23.368;2023-04-03T03:19:24;9.32;;;3.13;;
10945;SDS011;5525;42.648;23.368;2023-04-03T03:21:51;6.55;;;3.28;;
10945;SDS011;5525;42.648;23.368;2023-04-03T03:24:17;9.60;;;2.88;;
10945;SDS011;5525;42.648;23.368;2023-04-03T03:26:44;6.75;;;3.10;;
10945;SDS011;5525;42.648;23.368;2023-04-03T03:29:11;3.10;;;2.80;;
10945;SDS011;5525;42.648;23.368;2023-04-03T03:31:37;5.15;;;3.13;;
10945;SDS011;5525;42.648;23.368;2023-04-03T03:34:05;4.65;;;3.10;;
10945;SDS011;5525;42.648;23.368;2023-04-03T03:36:32;3.17;;;2.60;;
10945;SDS011;5525;42.648;23.368;2023-04-03T03:38:59;3.53;;;2.70;;
10945;SDS011;5525;42.648;23.368;2023-04-03T03:41:25;5.07;;;3.10;;
10945;SDS011;5525;42.648;23.368;2023-04-03T03:43:52;7.57;;;3.03;;
10945;SDS011;5525;42.648;23.368;2023-04-03T03:46:18;3.00;;;2.70;;
10945;SDS011;5525;42.648;23.368;2023-04-03T03:48:45;5.45;;;3.03;;
10945;SDS011;5525;42.648;23.368;2023-04-03T03:51:13;4.80;;;3.05;;
10945;SDS011;5525;42.648;23.368;2023-04-03T03:53:40;8.18;;;2.88;;
10945;SDS011;5525;42.648;23.368;2023-04-03T03:56:07;6.60;;;2.55;;
10945;SDS011;5525;42.648;23.368;2023-04-03T03:58:33;4.18;;;2.75;;
10945;SDS011;5525;42.648;23.368;2023-04-03T04:01:01;3.65;;;2.63;;
10945;SDS011;5525;42.648;23.368;2023-04-03T04:03:28;3.88;;;2.60;;
10945;SDS011;5525;42.648;23.368;2023-04-03T04:05:54;5.65;;;3.00;;
10945;SDS011;5525;42.648;23.368;2023-04-03T04:08:23;8.65;;;3.22;;
10945;SDS011;5525;42.648;23.368;2023-04-03T04:10:49;4.57;;;3.10;;
10945;SDS011;5525;42.648;23.368;2023-04-03T04:13:16;4.38;;;3.00;;
10945;SDS011;5525;42.648;23.368;2023-04-03T04:15:43;4.88;;;3.17;;
10945;SDS011;5525;42.648;23.368;2023-04-03T04:18:10;4.90;;;3.28;;
10945;SDS011;5525;42.648;23.368;2023-04-03T04:20:36;8.55;;;3.63;;
10945;SDS011;5525;42.648;23.368;2023-04-03T04:23:03;4.05;;;3.13;;
10945;SDS011;5525;42.648;23.368;2023-04-03T04:25:31;4.90;;;3.10;;
10945;SDS011;5525;42.648;23.368;2023-04-03T04:27:58;7.75;;;3.30;;
10945;SDS011;5525;42.648;23.368;2023-04-03T04:30:25;4.30;;;3.25;;
10945;SDS011;5525;42.648;23.368;2023-04-03T04:32:52;9.82;;;3.78;;
10945;SDS011;5525;42.648;23.368;2023-04-03T04:35:19;7.78;;;3.97;;
10945;SDS011;5525;42.648;23.368;2023-04-03T04:37:45;7.05;;;3.78;;
10945;SDS011;5525;42.648;23.368;2023-04-03T04:40:12;8.73;;;3.45;;
10945;SDS011;5525;42.648;23.368;2023-04-03T04:42:40;11.43;;;4.57;;
10945;SDS011;5525;42.648;23.368;2023-04-03T04:45:07;14.27;;;5.75;;
10945;SDS011;5525;42.648;23.368;2023-04-03T04:47:34;18.27;;;6.20;;
10945;SDS011;5525;42.648;23.368;2023-04-03T04:50:01;11.68;;;5.20;;
10945;SDS011;5525;42.648;23.368;2023-04-03T04:52:28;19.38;;;7.05;;
10945;SDS011;5525;42.648;23.368;2023-04-03T04:54:55;98.97;;;64.45;;
10945;SDS011;5525;42.648;23.368;2023-04-03T04:57:22;61.25;;;41.47;;
10945;SDS011;5525;42.648;23.368;2023-04-03T04:59:50;44.47;;;33.88;;
10945;SDS011;5525;42.648;23.368;2023-04-03T05:02:16;27.92;;;17.63;;
10945;SDS011;5525;42.648;23.368;2023-04-03T05:04:43;24.55;;;19.85;;
10945;SDS011;5525;42.648;23.368;2023-04-03T05:07:10;9.20;;;7.00;;
10945;SDS011;5525;42.648;23.368;2023-04-03T05:09:36;10.18;;;5.15;;
10945;SDS011;5525;42.648;23.368;2023-04-03T05:12:03;12.45;;;4.72;;
10945;SDS011;5525;42.648;23.368;2023-04-03T05:14:30;10.82;;;4.75;;
10945;SDS011;5525;42.648;23.368;2023-04-03T05:16:58;9.80;;;4.82;;
10945;SDS011;5525;42.648;23.368;2023-04-03T05:19:25;8.32;;;4.05;;
10945;SDS011;5525;42.648;23.368;2023-04-03T05:21:51;5.35;;;3.47;;
10945;SDS011;5525;42.648;23.368;2023-04-03T05:24:18;15.30;;;5.10;;
10945;SDS011;5525;42.648;23.368;2023-04-03T05:26:45;19.35;;;7.40;;
10945;SDS011;5525;42.648;23.368;2023-04-03T05:29:12;19.08;;;7.43;;
10945;SDS011;5525;42.648;23.368;2023-04-03T05:31:38;19.48;;;8.95;;
10945;SDS011;5525;42.648;23.368;2023-04-03T05:34:06;12.52;;;6.75;;
10945;SDS011;5525;42.648;23.368;2023-04-03T05:36:33;17.73;;;7.18;;
10945;SDS011;5525;42.648;23.368;2023-04-03T05:39:00;17.02;;;6.93;;
10945;SDS011;5525;42.648;23.368;2023-04-03T05:41:27;13.43;;;7.47;;
10945;SDS011;5525;42.648;23.368;2023-04-03T05:43:53;18.10;;;8.13;;
10945;SDS011;5525;42.648;23.368;2023-04-03T05:46:20;14.65;;;7.28;;
10945;SDS011;5525;42.648;23.368;2023-04-03T05:48:47;14.30;;;7.18;;
10945;SDS011;5525;42.648;23.368;2023-04-03T05:51:16;16.02;;;7.47;;
10945;SDS011;5525;42.648;23.368;2023-04-03T05:53:44;13.02;;;7.25;;
10945;SDS011;5525;42.648;23.368;2023-04-03T05:56:12;14.77;;;7.07;;
10945;SDS011;5525;42.648;23.368;2023-04-03T05:58:39;17.00;;;6.30;;
10945;SDS011;5525;42.648;23.368;2023-04-03T06:01:06;15.38;;;6.00;;
10945;SDS011;5525;42.648;23.368;2023-04-03T06:03:33;28.42;;;7.28;;
10945;SDS011;5525;42.648;23.368;2023-04-03T06:06:01;15.98;;;7.18;;
10945;SDS011;5525;42.648;23.368;2023-04-03T06:08:30;22.55;;;8.40;;
10945;SDS011;5525;42.648;23.368;2023-04-03T06:10:57;18.00;;;9.35;;
10945;SDS011;5525;42.648;23.368;2023-04-03T06:13:24;20.38;;;10.27;;
10945;SDS011;5525;42.648;23.368;2023-04-03T06:15:51;14.85;;;9.73;;
10945;SDS011;5525;42.648;23.368;2023-04-03T06:18:18;13.02;;;9.48;;
10945;SDS011;5525;42.648;23.368;2023-04-03T06:20:45;15.43;;;9.43;;
10945;SDS011;5525;42.648;23.368;2023-04-03T06:23:11;16.58;;;9.55;;
10945;SDS011;5525;42.648;23.368;2023-04-03T06:25:39;15.05;;;9.02;;
10945;SDS011;5525;42.648;23.368;2023-04-03T06:28:07;17.25;;;8.85;;
10945;SDS011;5525;42.648;23.368;2023-04-03T06:30:35;20.13;;;9.10;;
10945;SDS011;5525;42.648;23.368;2023-04-03T06:33:02;12.65;;;8.02;;
10945;SDS011;5525;42.648;23.368;2023-04-03T06:35:29;10.65;;;6.90;;
10945;SDS011;5525;42.648;23.368;2023-04-03T06:37:56;12.18;;;7.13;;
10945;SDS011;5525;42.648;23.368;2023-04-03T06:40:24;10.68;;;6.72;;
10945;SDS011;5525;42.648;23.368;2023-04-03T06:42:53;10.70;;;6.10;;
10945;SDS011;5525;42.648;23.368;2023-04-03T06:45:19;8.45;;;4.80;;
10945;SDS011;5525;42.648;23.368;2023-04-03T06:47:46;9.30;;;5.63;;
10945;SDS011;5525;42.648;23.368;2023-04-03T06:50:13;8.50;;;5.05;;
10945;SDS011;5525;42.648;23.368;2023-04-03T06:52:40;13.60;;;5.65;;
10945;SDS011;5525;42.648;23.368;2023-04-03T06:55:08;8.95;;;5.80;;
10945;SDS011;5525;42.648;23.368;2023-04-03T06:57:35;8.20;;;5.13;;
10945;SDS011;5525;42.648;23.368;2023-04-03T07:00:04;13.95;;;5.57;;
10945;SDS011;5525;42.648;23.368;2023-04-03T07:02:32;10.80;;;6.07;;
10945;SDS011;5525;42.648;23.368;2023-04-03T07:04:59;13.18;;;6.68;;
10945;SDS011;5525;42.648;23.368;2023-04-03T07:07:31;10.02;;;6.30;;
10945;SDS011;5525;42.648;23.368;2023-04-03T07:09:59;14.68;;;6.95;;
10945;SDS011;5525;42.648;23.368;2023-04-03T07:12:25;12.85;;;7.80;;
10945;SDS011;5525;42.648;23.368;2023-04-03T07:14:52;16.42;;;8.05;;
10945;SDS011;5525;42.648;23.368;2023-04-03T07:17:20;10.15;;;7.85;;
10945;SDS011;5525;42.648;23.368;2023-04-03T07:19:47;15.63;;;7.57;;
10945;SDS011;5525;42.648;23.368;2023-04-03T07:22:13;17.45;;;8.20;;
10945;SDS011;5525;42.648;23.368;2023-04-03T07:24:41;19.92;;;8.52;;
10945;SDS011;5525;42.648;23.368;2023-04-03T07:27:07;16.33;;;9.20;;
10945;SDS011;5525;42.648;23.368;2023-04-03T07:29:35;14.70;;;10.55;;
10945;SDS011;5525;42.648;23.368;2023-04-03T07:32:01;19.55;;;10.30;;
10945;SDS011;5525;42.648;23.368;2023-04-03T07:34:30;18.42;;;10.07;;
10945;SDS011;5525;42.648;23.368;2023-04-03T07:36:57;15.27;;;10.68;;
10945;SDS011;5525;42.648;23.368;2023-04-03T07:39:25;21.48;;;10.77;;
10945;SDS011;5525;42.648;23.368;2023-04-03T07:41:53;14.52;;;9.23;;
10945;SDS011;5525;42.648;23.368;2023-04-03T07:44:20;12.95;;;9.15;;
10945;SDS011;5525;42.648;23.368;2023-04-03T07:46:47;14.10;;;9.77;;
10945;SDS011;5525;42.648;23.368;2023-04-03T07:49:15;17.67;;;9.73;;
10945;SDS011;5525;42.648;23.368;2023-04-03T07:51:44;19.88;;;11.93;;
10945;SDS011;5525;42.648;23.368;2023-04-03T07:54:11;21.35;;;12.57;;
10945;SDS011;5525;42.648;23.368;2023-04-03T07:56:38;18.92;;;12.88;;
10945;SDS011;5525;42.648;23.368;2023-04-03T07:59:05;17.13;;;11.98;;
10945;SDS011;5525;42.648;23.368;2023-04-03T08:01:31;25.00;;;13.60;;
10945;SDS011;5525;42.648;23.368;2023-04-03T08:03:58;15.13;;;13.18;;
10945;SDS011;5525;42.648;23.368;2023-04-03T08:06:25;21.52;;;14.02;;
10945;SDS011;5525;42.648;23.368;2023-04-03T08:08:55;27.63;;;13.95;;
10945;SDS011;5525;42.648;23.368;2023-04-03T08:11:22;17.40;;;14.52;;
10945;SDS011;5525;42.648;23.368;2023-04-03T08:13:51;22.23;;;14.23;;
10945;SDS011;5525;42.648;23.368;2023-04-03T08:16:18;23.80;;;14.27;;
10945;SDS011;5525;42.648;23.368;2023-04-03T08:18:47;22.80;;;15.50;;
10945;SDS011;5525;42.648;23.368;2023-04-03T08:21:16;26.80;;;15.05;;
10945;SDS011;5525;42.648;23.368;2023-04-03T08:23:43;21.95;;;14.43;;
10945;SDS011;5525;42.648;23.368;2023-04-03T08:26:12;23.85;;;15.35;;
10945;SDS011;5525;42.648;23.368;2023-04-03T08:28:39;21.83;;;14.25;;
10945;SDS011;5525;42.648;23.368;2023-04-03T08:31:07;24.73;;;14.45;;
10945;SDS011;5525;42.648;23.368;2023-04-03T08:33:37;18.63;;;13.93;;
10945;SDS011;5525;42.648;23.368;2023-04-03T08:36:05;23.30;;;14.98;;
10945;SDS011;5525;42.648;23.368;2023-04-03T08:38:33;25.63;;;14.43;;
10945;SDS011;5525;42.648;23.368;2023-04-03T08:41:09;19.70;;;13.65;;
10945;SDS011;5525;42.648;23.368;2023-04-03T08:43:43;22.05;;;13.63;;
10945;SDS011;5525;42.648;23.368;2023-04-03T08:46:22;18.30;;;12.50;;
10945;SDS011;5525;42.648;23.368;2023-04-03T08:48:54;19.00;;;13.55;;
10945;SDS011;5525;42.648;23.368;2023-04-03T08:51:24;27.02;;;13.30;;
10945;SDS011;5525;42.648;23.368;2023-04-03T08:53:54;22.17;;;12.60;;
10945;SDS011;5525;42.648;23.368;2023-04-03T08:56:24;17.08;;;12.73;;
10945;SDS011;5525;42.648;23.368;2023-04-03T08:58:52;17.10;;;11.30;;
10945;SDS011;5525;42.648;23.368;2023-04-03T09:01:24;16.55;;;11.43;;
10945;SDS011;5525;42.648;23.368;2023-04-03T09:03:55;22.02;;;11.50;;
10945;SDS011;5525;42.648;23.368;2023-04-03T09:06:23;15.95;;;12.77;;
10945;SDS011;5525;42.648;23.368;2023-04-03T09:08:56;24.27;;;13.10;;
10945;SDS011;5525;42.648;23.368;2023-04-03T09:11:36;17.35;;;12.10;;
10945;SDS011;5525;42.648;23.368;2023-04-03T09:14:13;17.58;;;10.57;;
10945;SDS011;5525;42.648;23.368;2023-04-03T09:16:49;17.98;;;10.73;;
10945;SDS011;5525;42.648;23.368;2023-04-03T09:19:21;13.55;;;8.38;;
10945;SDS011;5525;42.648;23.368;2023-04-03T09:21:58;10.68;;;8.65;;
10945;SDS011;5525;42.648;23.368;2023-04-03T09:24:28;13.68;;;8.88;;
10945;SDS011;5525;42.648;23.368;2023-04-03T09:27:00;12.77;;;8.93;;
10945;SDS011;5525;42.648;23.368;2023-04-03T09:29:31;13.18;;;8.90;;
10945;SDS011;5525;42.648;23.368;2023-04-03T09:32:11;9.52;;;6.07;;
10945;SDS011;5525;42.648;23.368;2023-04-03T09:34:45;9.48;;;7.68;;
10945;SDS011;5525;42.648;23.368;2023-04-03T09:37:33;7.25;;;5.97;;
10945;SDS011;5525;42.648;23.368;2023-04-03T09:40:02;10.95;;;6.70;;
10945;SDS011;5525;42.648;23.368;2023-04-03T09:42:32;5.40;;;3.83;;
10945;SDS011;5525;42.648;23.368;2023-04-03T09:44:59;14.90;;;5.57;;
10945;SDS011;5525;42.648;23.368;2023-04-03T09:47:27;7.38;;;5.07;;
10945;SDS011;5525;42.648;23.368;2023-04-03T09:50:08;4.85;;;2.80;;
10945;SDS011;5525;42.648;23.368;2023-04-03T09:52:45;3.42;;;2.70;;
10945;SDS011;5525;42.648;23.368;2023-04-03T09:55:13;4.88;;;3.20;;
10945;SDS011;5525;42.648;23.368;2023-04-03T09:57:43;3.38;;;2.80;;
10945;SDS011;5525;42.648;23.368;2023-04-03T10:00:19;4.72;;;2.60;;
10945;SDS011;5525;42.648;23.368;2023-04-03T10:02:49;4.53;;;3.45;;
10945;SDS011;5525;42.648;23.368;2023-04-03T10:05:28;9.35;;;3.60;;
10945;SDS011;5525;42.648;23.368;2023-04-03T10:08:08;4.43;;;3.95;;
10945;SDS011;5525;42.648;23.368;2023-04-03T10:10:37;19.33;;;6.35;;
10945;SDS011;5525;42.648;23.368;2023-04-03T10:13:07;6.05;;;4.40;;
10945;SDS011;5525;42.648;23.368;2023-04-03T10:15:39;4.35;;;3.63;;
10945;SDS011;5525;42.648;23.368;2023-04-03T10:18:15;10.07;;;4.93;;
10945;SDS011;5525;42.648;23.368;2023-04-03T10:20:54;6.47;;;4.40;;
10945;SDS011;5525;42.648;23.368;2023-04-03T10:23:26;6.35;;;3.88;;
10945;SDS011;5525;42.648;23.368;2023-04-03T10:26:01;4.97;;;3.65;;
10945;SDS011;5525;42.648;23.368;2023-04-03T10:28:39;4.50;;;3.35;;
10945;SDS011;5525;42.648;23.368;2023-04-03T10:31:13;5.38;;;3.33;;
10945;SDS011;5525;42.648;23.368;2023-04-03T10:33:52;8.35;;;3.78;;
10945;SDS011;5525;42.648;23.368;2023-04-03T10:36:31;4.78;;;3.92;;
10945;SDS011;5525;42.648;23.368;2023-04-03T10:39:05;3.65;;;3.30;;
10945;SDS011;5525;42.648;23.368;2023-04-03T10:41:54;3.75;;;2.70;;
10945;SDS011;5525;42.648;23.368;2023-04-03T10:44:29;7.18;;;5.28;;
10945;SDS011;5525;42.648;23.368;2023-04-03T10:47:04;3.47;;;3.10;;
10945;SDS011;5525;42.648;23.368;2023-04-03T10:49:43;2.90;;;2.38;;
10945;SDS011;5525;42.648;23.368;2023-04-03T10:52:22;3.22;;;2.20;;
10945;SDS011;5525;42.648;23.368;2023-04-03T10:54:56;2.28;;;1.95;;
10945;SDS011;5525;42.648;23.368;2023-04-03T10:57:30;4.70;;;2.10;;
10945;SDS011;5525;42.648;23.368;2023-04-03T10:59:59;3.25;;;2.08;;
10945;SDS011;5525;42.648;23.368;2023-04-03T11:02:30;5.35;;;2.60;;
10945;SDS011;5525;42.648;23.368;2023-04-03T11:05:00;2.85;;;2.50;;
10945;SDS011;5525;42.648;23.368;2023-04-03T11:07:32;2.60;;;2.40;;
10945;SDS011;5525;42.648;23.368;2023-04-03T11:10:03;3.85;;;2.50;;
10945;SDS011;5525;42.648;23.368;2023-04-03T11:12:40;2.85;;;2.50;;
10945;SDS011;5525;42.648;23.368;2023-04-03T11:15:12;3.45;;;2.53;;
10945;SDS011;5525;42.648;23.368;2023-04-03T11:17:43;3.97;;;2.80;;
10945;SDS011;5525;42.648;23.368;2023-04-03T11:20:17;5.55;;;2.85;;
10945;SDS011;5525;42.648;23.368;2023-04-03T11:22:47;4.18;;;3.50;;
10945;SDS011;5525;42.648;23.368;2023-04-03T11:25:18;4.63;;;3.17;;
10945;SDS011;5525;42.648;23.368;2023-04-03T11:27:48;4.72;;;3.50;;
10945;SDS011;5525;42.648;23.368;2023-04-03T11:30:22;4.03;;;3.63;;
10945;SDS011;5525;42.648;23.368;2023-04-03T11:33:10;3.83;;;3.35;;
10945;SDS011;5525;42.648;23.368;2023-04-03T11:35:47;3.53;;;3.03;;
10945;SDS011;5525;42.648;23.368;2023-04-03T11:38:17;4.20;;;2.97;;
10945;SDS011;5525;42.648;23.368;2023-04-03T11:40:47;5.18;;;3.13;;
10945;SDS011;5525;42.648;23.368;2023-04-03T11:43:21;4.13;;;3.40;;
10945;SDS011;5525;42.648;23.368;2023-04-03T11:45:56;3.60;;;3.30;;
10945;SDS011;5525;42.648;23.368;2023-04-03T11:48:42;3.88;;;3.20;;
10945;SDS011;5525;42.648;23.368;2023-04-03T11:51:40;3.78;;;3.20;;
10945;SDS011;5525;42.648;23.368;2023-04-03T12:03:07;3.70;;;3.40;;
10945;SDS011;5525;42.648;23.368;2023-04-03T12:06:49;4.78;;;3.53;;
10945;SDS011;5525;42.648;23.368;2023-04-03T12:12:43;4.53;;;4.10;;
10945;SDS011;5525;42.648;23.368;2023-04-03T12:18:31;5.28;;;4.03;;
10945;SDS011;5525;42.648;23.368;2023-04-03T12:21:07;4.68;;;4.07;;
10945;SDS011;5525;42.648;23.368;2023-04-03T12:23:36;4.55;;;4.05;;
10945;SDS011;5525;42.648;23.368;2023-04-03T12:28:47;5.03;;;4.32;;
10945;SDS011;5525;42.648;23.368;2023-04-03T12:31:17;5.20;;;4.70;;
10945;SDS011;5525;42.648;23.368;2023-04-03T12:33:56;4.97;;;3.88;;
10945;SDS011;5525;42.648;23.368;2023-04-03T12:36:29;6.15;;;5.20;;
10945;SDS011;5525;42.648;23.368;2023-04-03T12:39:07;11.48;;;8.27;;
10945;SDS011;5525;42.648;23.368;2023-04-03T12:41:45;5.30;;;4.30;;
10945;SDS011;5525;42.648;23.368;2023-04-03T12:44:23;5.53;;;4.82;;
10945;SDS011;5525;42.648;23.368;2023-04-03T12:46:58;5.88;;;4.70;;
10945;SDS011;5525;42.648;23.368;2023-04-03T12:49:32;5.45;;;4.90;;
10945;SDS011;5525;42.648;23.368;2023-04-03T12:52:02;5.22;;;4.72;;
10945;SDS011;5525;42.648;23.368;2023-04-03T12:54:34;6.22;;;5.40;;
10945;SDS011;5525;42.648;23.368;2023-04-03T12:57:10;7.32;;;5.88;;
10945;SDS011;5525;42.648;23.368;2023-04-03T12:59:40;5.47;;;4.53;;
10945;SDS011;5525;42.648;23.368;2023-04-03T13:02:15;7.03;;;4.93;;
10945;SDS011;5525;42.648;23.368;2023-04-03T13:04:48;5.18;;;4.47;;
10945;SDS011;5525;42.648;23.368;2023-04-03T13:07:21;5.18;;;4.68;;
10945;SDS011;5525;42.648;23.368;2023-04-03T13:10:00;5.57;;;4.75;;
10945;SDS011;5525;42.648;23.368;2023-04-03T13:12:28;5.35;;;4.68;;
10945;SDS011;5525;42.648;23.368;2023-04-03T13:14:57;4.93;;;4.50;;
10945;SDS011;5525;42.648;23.368;2023-04-03T13:17:25;6.60;;;5.90;;
10945;SDS011;5525;42.648;23.368;2023-04-03T13:19:54;6.13;;;5.45;;
10945;SDS011;5525;42.648;23.368;2023-04-03T13:22:26;6.70;;;5.80;;
10945;SDS011;5525;42.648;23.368;2023-04-03T13:24:59;8.50;;;6.20;;
10945;SDS011;5525;42.648;23.368;2023-04-03T13:27:32;6.47;;;5.88;;
10945;SDS011;5525;42.648;23.368;2023-04-03T13:30:00;6.30;;;5.80;;
10945;SDS011;5525;42.648;23.368;2023-04-03T13:32:31;9.48;;;8.52;;
10945;SDS011;5525;42.648;23.368;2023-04-03T13:34:59;7.20;;;6.00;;
10945;SDS011;5525;42.648;23.368;2023-04-03T13:37:27;8.70;;;7.13;;
10945;SDS011;5525;42.648;23.368;2023-04-03T13:40:00;7.57;;;6.60;;
10945;SDS011;5525;42.648;23.368;2023-04-03T13:42:38;7.65;;;6.95;;
10945;SDS011;5525;42.648;23.368;2023-04-03T13:45:10;7.97;;;7.18;;
10945;SDS011;5525;42.648;23.368;2023-04-03T13:47:45;8.18;;;7.38;;
10945;SDS011;5525;42.648;23.368;2023-04-03T13:50:23;8.32;;;7.53;;
10945;SDS011;5525;42.648;23.368;2023-04-03T13:52:52;8.63;;;7.75;;
10945;SDS011;5525;42.648;23.368;2023-04-03T13:55:22;9.10;;;7.57;;
10945;SDS011;5525;42.648;23.368;2023-04-03T13:57:53;8.18;;;7.38;;
10945;SDS011;5525;42.648;23.368;2023-04-03T14:00:29;7.47;;;6.60;;
10945;SDS011;5525;42.648;23.368;2023-04-03T14:03:00;7.22;;;6.53;;
10945;SDS011;5525;42.648;23.368;2023-04-03T14:05:27;8.05;;;7.28;;
10945;SDS011;5525;42.648;23.368;2023-04-03T14:07:54;8.77;;;7.88;;
10945;SDS011;5525;42.648;23.368;2023-04-03T14:10:23;8.45;;;7.60;;
10945;SDS011;5525;42.648;23.368;2023-04-03T14:12:50;8.77;;;7.88;;
10945;SDS011;5525;42.648;23.368;2023-04-03T14:15:18;9.65;;;7.95;;
10945;SDS011;5525;42.648;23.368;2023-04-03T14:17:49;10.07;;;8.88;;
10945;SDS011;5525;42.648;23.368;2023-04-03T14:20:18;8.85;;;7.95;;
10945;SDS011;5525;42.648;23.368;2023-04-03T14:22:47;10.80;;;8.05;;
10945;SDS011;5525;42.648;23.368;2023-04-03T14:25:17;9.70;;;8.70;;
10945;SDS011;5525;42.648;23.368;2023-04-03T14:27:53;10.82;;;8.88;;
10945;SDS011;5525;42.648;23.368;2023-04-03T14:30:21;11.00;;;9.00;;
10945;SDS011;5525;42.648;23.368;2023-04-03T14:32:50;10.00;;;8.93;;
10945;SDS011;5525;42.648;23.368;2023-04-03T14:35:17;11.38;;;8.70;;
10945;SDS011;5525;42.648;23.368;2023-04-03T14:37:45;9.73;;;8.68;;
10945;SDS011;5525;42.648;23.368;2023-04-03T14:40:14;8.90;;;8.00;;
10945;SDS011;5525;42.648;23.368;2023-04-03T14:42:42;9.02;;;7.88;;
10945;SDS011;5525;42.648;23.368;2023-04-03T14:45:11;9.30;;;8.32;;
10945;SDS011;5525;42.648;23.368;2023-04-03T14:47:39;8.90;;;8.00;;
10945;SDS011;5525;42.648;23.368;2023-04-03T14:50:11;8.38;;;7.57;;
10945;SDS011;5525;42.648;23.368;2023-04-03T14:52:39;10.90;;;8.95;;
10945;SDS011;5525;42.648;23.368;2023-04-03T14:55:07;10.57;;;8.70;;
10945;SDS011;5525;42.648;23.368;2023-04-03T14:57:34;8.35;;;7.45;;
10945;SDS011;5525;42.648;23.368;2023-04-03T15:00:02;7.75;;;6.97;;
10945;SDS011;5525;42.648;23.368;2023-04-03T15:02:31;8.77;;;7.97;;
10945;SDS011;5525;42.648;23.368;2023-04-03T15:04:59;8.80;;;7.88;;
10945;SDS011;5525;42.648;23.368;2023-04-03T15:07:29;8.05;;;7.25;;
10945;SDS011;5525;42.648;23.368;2023-04-03T15:09:59;9.70;;;7.88;;
10945;SDS011;5525;42.648;23.368;2023-04-03T15:12:27;7.72;;;6.85;;
10945;SDS011;5525;42.648;23.368;2023-04-03T15:14:54;8.10;;;7.30;;